Time;durP1;ratioP1;P1;durP2;ratioP2;P2;SDS_P1;SDS_P2;PMS_P1;PMS_P2;Temp;Humidity;BMP_temperature;BMP_pressure;BME280_temperature;BME280_humidity;BME280_pressure;Samples;Min_cycle;Max_cycle;Signal;HPM_P1;HPM_P2
2022/09/30 00:01:42;;;;;;;5.13;2.58;;;5.50;99.90;;;;;;5053268;28;20048;-59
2022/09/30 00:04:34;;;;;;;4.30;2.40;;;5.50;99.90;;;;;;5053657;28;20032;-60
2022/09/30 00:06:59;;;;;;;3.58;2.38;;;5.40;99.90;;;;;;5050553;28;20436;-59
2022/09/30 00:09:25;;;;;;;3.40;2.30;;;5.40;99.90;;;;;;5053134;28;20017;-56
2022/09/30 00:11:51;;;;;;;5.35;2.30;;;5.40;99.90;;;;;;5053487;28;20029;-54
2022/09/30 00:14:19;;;;;;;3.47;2.15;;;5.40;99.90;;;;;;5053695;28;20491;-56
2022/09/30 00:16:45;;;;;;;3.08;2.22;;;5.40;99.90;;;;;;5052643;28;20123;-56
2022/09/30 00:19:12;;;;;;;3.22;1.95;;;5.30;99.90;;;;;;5053718;28;20024;-55
2022/09/30 00:21:38;;;;;;;2.78;2.10;;;5.30;99.90;;;;;;5053745;28;20020;-56
2022/09/30 00:24:04;;;;;;;3.45;2.17;;;5.30;99.90;;;;;;5052665;28;20021;-57
2022/09/30 00:26:31;;;;;;;4.85;2.90;;;5.30;99.90;;;;;;5053562;28;20427;-57
2022/09/30 00:28:58;;;;;;;11.82;2.90;;;5.30;99.90;;;;;;5052360;28;20613;-60
2022/09/30 00:31:27;;;;;;;3.63;2.40;;;5.30;99.90;;;;;;5053463;28;20024;-58
2022/09/30 00:34:05;;;;;;;3.50;2.65;;;5.30;99.90;;;;;;5052671;28;20094;-57
2022/09/30 00:36:47;;;;;;;2.78;2.10;;;5.30;99.90;;;;;;5052702;28;20025;-54
2022/09/30 00:39:25;;;;;;;3.65;2.80;;;5.30;99.90;;;;;;5052982;28;20017;-62
2022/09/30 00:41:54;;;;;;;3.20;2.35;;;5.30;99.90;;;;;;5051557;28;20024;-56
2022/09/30 00:44:49;;;;;;;3.47;2.20;;;5.30;99.90;;;;;;5052403;28;20074;-54
2022/09/30 00:47:43;;;;;;;2.97;2.10;;;5.30;99.90;;;;;;5053131;28;20043;-53
2022/09/30 00:50:09;;;;;;;7.20;2.30;;;5.20;99.90;;;;;;5052184;28;20744;-56
2022/09/30 00:52:35;;;;;;;2.72;1.95;;;5.20;99.90;;;;;;5052895;28;20017;-56
2022/09/30 00:55:07;;;;;;;3.00;2.10;;;5.20;99.90;;;;;;5052484;28;20672;-56
2022/09/30 00:57:34;;;;;;;3.40;2.10;;;5.20;99.90;;;;;;5052216;28;20033;-56
2022/09/30 01:00:00;;;;;;;3.63;1.83;;;5.20;99.90;;;;;;5052587;28;20108;-50
2022/09/30 01:02:26;;;;;;;1.85;1.52;;;5.20;99.90;;;;;;5052931;28;20060;-56
2022/09/30 01:04:53;;;;;;;3.05;1.60;;;5.20;99.90;;;;;;5051972;28;20041;-54
2022/09/30 01:07:20;;;;;;;2.45;1.85;;;5.20;99.90;;;;;;5048693;28;20507;-54
2022/09/30 01:09:47;;;;;;;3.15;2.00;;;5.20;99.90;;;;;;5051276;28;20021;-57
2022/09/30 01:12:16;;;;;;;3.03;1.52;;;5.20;99.90;;;;;;5051675;28;20021;-53
2022/09/30 01:14:45;;;;;;;2.88;1.70;;;5.20;99.90;;;;;;5052584;28;20028;-60
2022/09/30 01:17:19;;;;;;;2.40;1.67;;;5.20;99.90;;;;;;5054199;28;20075;-56
2022/09/30 01:20:11;;;;;;;1.70;1.40;;;5.20;99.90;;;;;;5052502;28;20044;-63
2022/09/30 01:22:59;;;;;;;1.98;1.52;;;5.10;99.90;;;;;;5043961;28;20091;-59
2022/09/30 01:25:25;;;;;;;3.55;1.60;;;5.20;99.90;;;;;;5051435;28;20493;-65
2022/09/30 01:28:28;;;;;;;2.75;1.88;;;5.10;99.90;;;;;;5051946;28;20028;-67
2022/09/30 01:31:18;;;;;;;2.67;1.77;;;5.20;99.90;;;;;;5052313;28;20029;-65
2022/09/30 01:33:49;;;;;;;2.97;1.60;;;5.10;99.90;;;;;;5051653;28;20086;-56
2022/09/30 01:36:26;;;;;;;2.80;1.75;;;5.10;99.90;;;;;;5052445;28;20090;-70
2022/09/30 01:39:07;;;;;;;3.17;1.95;;;5.10;99.90;;;;;;5052137;28;20096;-76
2022/09/30 01:42:05;;;;;;;5.53;1.75;;;5.10;99.90;;;;;;5052261;28;20496;-71
2022/09/30 01:44:40;;;;;;;4.90;1.63;;;5.10;99.90;;;;;;5051581;28;20425;-63
2022/09/30 01:47:16;;;;;;;3.15;2.10;;;5.10;99.90;;;;;;5051112;28;20021;-62
2022/09/30 01:49:45;;;;;;;2.20;1.52;;;5.00;99.90;;;;;;5052406;28;20013;-62
2022/09/30 01:52:22;;;;;;;2.40;1.50;;;5.00;99.90;;;;;;5052037;28;20029;-65
2022/09/30 01:55:01;;;;;;;1.58;1.40;;;5.10;99.90;;;;;;5051175;28;20025;-62
2022/09/30 01:58:02;;;;;;;2.47;1.40;;;5.00;99.90;;;;;;5051979;28;20033;-55
2022/09/30 02:00:29;;;;;;;3.15;2.00;;;5.00;99.90;;;;;;5051191;28;20495;-59
2022/09/30 02:03:13;;;;;;;2.35;1.73;;;4.90;99.90;;;;;;5051681;28;20090;-59
2022/09/30 02:05:50;;;;;;;4.93;1.75;;;4.90;99.90;;;;;;5051842;28;20420;-59
2022/09/30 02:08:28;;;;;;;2.33;1.40;;;4.90;99.90;;;;;;5051037;28;20037;-57
2022/09/30 02:11:17;;;;;;;2.22;1.60;;;4.90;99.90;;;;;;5051385;28;20109;-61
2022/09/30 02:14:07;;;;;;;3.80;1.63;;;4.80;99.90;;;;;;5051392;28;20497;-62
2022/09/30 02:16:48;;;;;;;2.78;1.90;;;4.80;99.90;;;;;;5039731;28;20077;-58
2022/09/30 02:19:27;;;;;;;;;;;4.80;99.90;;;;;;5052145;28;20575;-57
2022/09/30 02:21:59;;;;;;;1.85;1.63;;;4.70;99.90;;;;;;5050876;28;19904;-58
2022/09/30 02:24:27;;;;;;;1.63;1.30;;;4.70;99.90;;;;;;5051643;28;20032;-57
2022/09/30 02:26:56;;;;;;;1.55;1.35;;;4.60;99.90;;;;;;5051359;28;20078;-58
2022/09/30 02:29:34;;;;;;;1.60;1.42;;;4.60;99.90;;;;;;5050763;28;20029;-59
2022/09/30 02:32:08;;;;;;;1.20;1.10;;;4.60;99.90;;;;;;5051393;28;20024;-58
2022/09/30 02:34:44;;;;;;;3.17;1.73;;;4.60;99.90;;;;;;5050351;28;20025;-57
2022/09/30 02:37:18;;;;;;;3.97;1.95;;;4.50;99.90;;;;;;5050906;28;20033;-52
2022/09/30 02:40:00;;;;;;;2.08;1.80;;;4.50;99.90;;;;;;5055085;28;20104;-55
2022/09/30 02:42:28;;;;;;;3.78;1.75;;;4.50;99.90;;;;;;5054790;28;20479;-57
2022/09/30 02:45:07;;;;;;;1.85;1.60;;;4.50;99.90;;;;;;5055046;28;20143;-61
2022/09/30 02:48:09;;;;;;;2.13;1.52;;;4.40;99.90;;;;;;5055398;28;20021;-60
2022/09/30 02:50:48;;;;;;;2.60;1.55;;;4.40;99.90;;;;;;5054428;28;20033;-63
2022/09/30 02:53:36;;;;;;;1.45;1.35;;;4.40;99.90;;;;;;5055219;28;20385;-57
2022/09/30 02:56:18;;;;;;;1.40;1.30;;;4.40;99.90;;;;;;5054695;28;20465;-61
2022/09/30 02:58:45;;;;;;;2.58;1.70;;;4.30;99.90;;;;;;5054189;28;20052;-56
2022/09/30 03:01:15;;;;;;;2.05;1.30;;;4.30;99.90;;;;;;5054909;28;20488;-56
2022/09/30 03:03:49;;;;;;;2.08;1.40;;;4.30;99.90;;;;;;5054209;28;20056;-55
2022/09/30 03:06:16;;;;;;;1.50;1.30;;;4.30;99.90;;;;;;5052609;28;20120;-59
2022/09/30 03:08:43;;;;;;;1.90;1.40;;;4.30;99.90;;;;;;5053258;28;20040;-58
2022/09/30 03:11:23;;;;;;;1.38;1.13;;;4.30;99.90;;;;;;5054388;28;20087;-60
2022/09/30 03:14:16;;;;;;;2.40;1.10;;;4.20;99.90;;;;;;5054489;28;20094;-58
2022/09/30 03:17:10;;;;;;;2.13;1.40;;;4.20;99.90;;;;;;5054537;28;20098;-53
2022/09/30 03:20:08;;;;;;;1.38;1.30;;;4.20;99.90;;;;;;5054115;28;20028;-52
2022/09/30 03:22:55;;;;;;;2.05;1.25;;;4.20;99.90;;;;;;5054633;28;20028;-55
2022/09/30 03:26:03;;;;;;;2.05;1.27;;;4.20;99.90;;;;;;5055804;28;20024;-55
2022/09/30 03:28:35;;;;;;;1.40;1.20;;;4.20;99.90;;;;;;5068202;28;20032;-58
2022/09/30 03:31:29;;;;;;;1.48;1.10;;;4.20;99.90;;;;;;5061831;28;20074;-71
2022/09/30 03:34:10;;;;;;;1.73;1.40;;;4.10;99.90;;;;;;5053653;28;20095;-70
2022/09/30 03:36:42;;;;;;;1.73;1.50;;;4.10;99.90;;;;;;5054411;28;20138;-69
2022/09/30 03:39:28;;;;;;;1.30;1.20;;;4.10;99.90;;;;;;5054024;28;20032;-64
2022/09/30 03:42:21;;;;;;;1.52;1.20;;;4.10;99.90;;;;;;5054256;28;20021;-75
2022/09/30 03:45:02;;;;;;;2.53;1.40;;;4.10;99.90;;;;;;5054233;28;20056;-62
2022/09/30 03:47:31;;;;;;;;;;;4.00;99.90;;;;;;5054436;28;20029;-76
2022/09/30 03:50:01;;;;;;;2.97;1.20;;;4.00;99.90;;;;;;5053878;28;19912;-69
2022/09/30 03:52:30;;;;;;;1.45;1.20;;;4.00;99.90;;;;;;5054253;28;20108;-64
2022/09/30 03:54:59;;;;;;;3.53;1.35;;;3.90;99.90;;;;;;5053382;28;20517;-71
2022/09/30 03:57:28;;;;;;;4.00;1.30;;;3.90;99.90;;;;;;5053858;28;20029;-59
2022/09/30 03:59:54;;;;;;;1.80;1.20;;;3.90;99.90;;;;;;5053462;28;20079;-71
2022/09/30 04:02:19;;;;;;;1.15;1.05;;;3.90;99.90;;;;;;5053896;28;20033;-62
2022/09/30 04:04:45;;;;;;;1.77;1.40;;;3.90;99.90;;;;;;5053886;28;20106;-74
2022/09/30 04:07:11;;;;;;;1.80;1.50;;;3.90;99.90;;;;;;5053361;28;20060;-60
2022/09/30 04:09:38;;;;;;;2.70;1.40;;;3.90;99.90;;;;;;5053717;28;20021;-55
2022/09/30 04:12:05;;;;;;;1.58;1.48;;;4.00;99.90;;;;;;5053654;28;20029;-60
2022/09/30 04:14:30;;;;;;;1.63;1.25;;;4.00;99.90;;;;;;5052904;28;20029;-58
2022/09/30 04:16:56;;;;;;;3.38;1.17;;;4.00;99.90;;;;;;5053161;28;20374;-56
2022/09/30 04:19:23;;;;;;;1.52;1.30;;;4.00;99.90;;;;;;5053624;28;20021;-54
2022/09/30 04:21:52;;;;;;;4.07;1.58;;;4.00;99.90;;;;;;5052869;28;20119;-52
2022/09/30 04:24:22;;;;;;;2.55;1.67;;;4.00;99.90;;;;;;5053385;28;20412;-56
2022/09/30 04:26:48;;;;;;;3.80;1.60;;;4.00;99.90;;;;;;5053076;28;20040;-56
2022/09/30 04:29:15;;;;;;;4.57;1.38;;;4.00;99.90;;;;;;5052638;28;20477;-52
2022/09/30 04:31:40;;;;;;;2.38;1.70;;;4.00;99.90;;;;;;5053163;28;20017;-52
2022/09/30 04:34:06;;;;;;;2.72;1.50;;;4.00;99.90;;;;;;5051517;28;20031;-58
2022/09/30 04:36:32;;;;;;;2.78;1.63;;;3.90;99.90;;;;;;5052186;28;20025;-53
2022/09/30 04:38:58;;;;;;;4.05;1.73;;;3.90;99.90;;;;;;5052677;28;20032;-55
2022/09/30 04:41:24;;;;;;;3.78;2.05;;;3.90;99.90;;;;;;5052927;28;20118;-56
2022/09/30 04:43:49;;;;;;;5.95;2.28;;;3.90;99.90;;;;;;5051848;28;20469;-54
2022/09/30 04:46:16;;;;;;;7.15;3.50;;;3.90;99.90;;;;;;5052440;28;20031;-57
2022/09/30 04:48:44;;;;;;;8.60;3.67;;;3.90;99.90;;;;;;5052972;28;20036;-64
2022/09/30 04:51:18;;;;;;;5.18;2.85;;;3.90;99.90;;;;;;5052562;28;20029;-61
2022/09/30 04:53:44;;;;;;;7.47;3.03;;;3.90;99.90;;;;;;5052815;28;20021;-63
2022/09/30 04:56:10;;;;;;;5.03;2.60;;;3.80;99.90;;;;;;5052251;28;20354;-65
2022/09/30 04:58:36;;;;;;;4.65;2.55;;;3.80;99.90;;;;;;5052710;28;20032;-61
2022/09/30 05:01:11;;;;;;;4.18;2.30;;;3.80;99.90;;;;;;5050500;28;20017;-60
2022/09/30 05:03:36;;;;;;;3.60;2.22;;;3.90;99.90;;;;;;5049824;28;20032;-58
2022/09/30 05:06:04;;;;;;;5.20;2.90;;;3.90;99.90;;;;;;5051659;28;20020;-61
2022/09/30 05:08:32;;;;;;;3.78;2.50;;;3.90;99.90;;;;;;5051948;28;20056;-62
2022/09/30 05:11:00;;;;;;;4.85;3.42;;;4.00;99.90;;;;;;5051608;28;20079;-55
2022/09/30 05:13:33;;;;;;;4.65;2.88;;;4.00;99.90;;;;;;5052653;28;20041;-56
2022/09/30 05:16:00;;;;;;;3.65;2.65;;;4.00;99.90;;;;;;5052304;28;20028;-58
2022/09/30 05:18:29;;;;;;;4.45;2.70;;;4.00;99.90;;;;;;5051207;28;20051;-59
2022/09/30 05:20:56;;;;;;;3.35;2.15;;;4.00;99.90;;;;;;5050270;28;20021;-65
2022/09/30 05:23:23;;;;;;;4.13;2.67;;;4.00;99.90;;;;;;5050019;28;20028;-56
2022/09/30 05:25:50;;;;;;;4.63;2.97;;;4.00;99.90;;;;;;5051166;28;20024;-53
2022/09/30 05:28:16;;;;;;;6.10;3.33;;;3.90;99.90;;;;;;5052341;28;20024;-57
2022/09/30 05:30:46;;;;;;;7.05;4.05;;;4.00;99.90;;;;;;5050656;28;20423;-60
2022/09/30 05:33:12;;;;;;;6.85;4.53;;;4.10;99.90;;;;;;5051696;28;20021;-57
2022/09/30 05:35:40;;;;;;;9.80;5.00;;;4.20;99.90;;;;;;5052230;28;20021;-57
2022/09/30 05:38:07;;;;;;;18.10;6.15;;;4.30;99.90;;;;;;5052943;28;20025;-55
2022/09/30 05:40:35;;;;;;;13.57;5.97;;;4.40;99.90;;;;;;5051726;28;20017;-68
2022/09/30 05:43:01;;;;;;;13.82;6.65;;;4.50;99.90;;;;;;5052463;28;20074;-59
2022/09/30 05:45:26;;;;;;;17.88;6.57;;;4.60;99.90;;;;;;5050481;28;20504;-74
2022/09/30 05:47:53;;;;;;;31.73;8.45;;;4.70;99.90;;;;;;5051475;28;20024;-63
2022/09/30 05:50:20;;;;;;;38.65;9.52;;;4.70;99.90;;;;;;5052310;28;20020;-64
2022/09/30 05:52:45;;;;;;;35.47;11.18;;;4.80;99.90;;;;;;5050098;28;20100;-61
2022/09/30 05:55:11;;;;;;;34.13;9.93;;;4.80;99.90;;;;;;5052178;28;20139;-56
2022/09/30 05:57:37;;;;;;;28.55;9.85;;;4.80;99.90;;;;;;5051982;28;20064;-62
2022/09/30 06:00:04;;;;;;;31.95;9.88;;;4.80;99.90;;;;;;5051225;28;20132;-71
2022/09/30 06:02:30;;;;;;;31.20;10.20;;;4.80;99.90;;;;;;5052288;28;20028;-63
2022/09/30 06:04:55;;;;;;;26.10;10.27;;;4.80;99.90;;;;;;5051261;28;20040;-55
2022/09/30 06:07:21;;;;;;;29.35;10.20;;;4.90;99.90;;;;;;5051087;28;20580;-76
2022/09/30 06:09:47;;;;;;;36.08;12.05;;;4.90;99.90;;;;;;5051672;28;20025;-69
2022/09/30 06:12:12;;;;;;;32.58;10.45;;;4.90;99.90;;;;;;5051922;28;20424;-71
2022/09/30 06:14:38;;;;;;;35.67;11.57;;;4.90;99.90;;;;;;5051234;28;20358;-70
2022/09/30 06:17:05;;;;;;;31.17;9.60;;;5.00;99.90;;;;;;5051105;28;20141;-71
2022/09/30 06:19:31;;;;;;;33.75;10.82;;;5.00;99.90;;;;;;5051480;28;20107;-59
2022/09/30 06:21:57;;;;;;;43.90;12.52;;;5.10;99.90;;;;;;5050749;28;20029;-56
2022/09/30 06:24:23;;;;;;;30.55;10.75;;;5.10;99.90;;;;;;5051670;28;20535;-54
2022/09/30 06:26:49;;;;;;;24.42;10.38;;;5.10;99.90;;;;;;5051120;28;20032;-54
2022/09/30 06:29:15;;;;;;;22.83;9.30;;;5.20;99.90;;;;;;5051218;28;20025;-54
2022/09/30 06:31:41;;;;;;;25.35;8.73;;;5.30;99.90;;;;;;5050293;28;20029;-61
2022/09/30 06:34:07;;;;;;;20.05;8.70;;;5.30;99.90;;;;;;5051153;28;20056;-58
2022/09/30 06:36:33;;;;;;;20.60;8.18;;;5.40;99.90;;;;;;5050865;28;20071;-59
2022/09/30 06:39:03;;;;;;;28.20;10.75;;;5.30;99.90;;;;;;5051165;28;20036;-65
2022/09/30 06:41:29;;;;;;;22.60;8.93;;;5.40;99.90;;;;;;5051121;28;20032;-60
2022/09/30 06:43:55;;;;;;;24.70;9.65;;;5.40;99.90;;;;;;5050878;28;20358;-57
2022/09/30 06:46:23;;;;;;;24.67;10.50;;;5.50;99.90;;;;;;5051618;28;20042;-70
2022/09/30 06:48:57;;;;;;;23.92;9.77;;;5.50;99.90;;;;;;5050374;28;20021;-57
2022/09/30 06:51:28;;;;;;;22.65;10.68;;;5.50;99.90;;;;;;5051414;28;20024;-63
2022/09/30 06:53:55;;;;;;;22.83;10.75;;;5.60;99.90;;;;;;5050965;28;20056;-63
2022/09/30 06:56:21;;;;;;;23.20;12.38;;;5.60;99.90;;;;;;5050728;28;20025;-69
2022/09/30 06:58:47;;;;;;;23.95;12.07;;;5.70;99.90;;;;;;5050935;28;20025;-63
2022/09/30 07:01:13;;;;;;;21.10;13.05;;;5.90;99.90;;;;;;5051216;28;20384;-55
2022/09/30 07:03:41;;;;;;;19.00;11.77;;;5.90;99.90;;;;;;5050738;28;20033;-64
2022/09/30 07:06:06;;;;;;;18.60;10.75;;;6.10;99.90;;;;;;5051038;28;20100;-57
2022/09/30 07:08:34;;;;;;;21.30;11.20;;;6.20;99.90;;;;;;5051158;28;20100;-65
2022/09/30 07:11:03;;;;;;;28.73;13.18;;;6.20;99.90;;;;;;5050317;28;20025;-57
2022/09/30 07:13:29;;;;;;;31.42;14.73;;;6.30;99.90;;;;;;5051115;28;20428;-60
2022/09/30 07:15:55;;;;;;;37.25;14.50;;;6.40;99.90;;;;;;5050782;28;20466;-61
2022/09/30 07:18:22;;;;;;;37.65;15.13;;;6.50;99.90;;;;;;5050612;28;20025;-58
2022/09/30 07:20:52;;;;;;;44.00;16.00;;;6.50;99.90;;;;;;5050888;28;20021;-62
2022/09/30 07:23:19;;;;;;;43.65;17.13;;;6.60;99.90;;;;;;5050955;28;20104;-56
2022/09/30 07:26:04;;;;;;;38.60;16.27;;;6.70;99.90;;;;;;5053935;28;20021;-55
2022/09/30 07:28:34;;;;;;;44.83;17.38;;;6.80;99.90;;;;;;5054740;28;20021;-57
2022/09/30 07:31:05;;;;;;;32.33;14.63;;;6.90;99.90;;;;;;5053871;28;20021;-57
2022/09/30 07:33:32;;;;;;;38.78;16.48;;;7.00;99.90;;;;;;5054849;28;20021;-56
2022/09/30 07:35:59;;;;;;;38.55;17.55;;;7.10;99.90;;;;;;5054042;28;20025;-51
2022/09/30 07:38:28;;;;;;;34.22;15.20;;;7.10;99.90;;;;;;5054033;28;20036;-54
2022/09/30 07:40:57;;;;;;;28.27;14.73;;;7.20;99.90;;;;;;5054382;28;20077;-58
2022/09/30 07:43:33;;;;;;;26.63;13.55;;;7.20;99.90;;;;;;5054210;28;20493;-57
2022/09/30 07:46:04;;;;;;;29.50;15.38;;;7.30;99.90;;;;;;5054290;28;20028;-56
2022/09/30 07:48:45;;;;;;;28.60;16.13;;;7.40;99.90;;;;;;5054866;28;20029;-64
2022/09/30 07:51:14;;;;;;;36.58;20.75;;;7.40;99.90;;;;;;5054385;28;20026;-66
2022/09/30 07:53:42;;;;;;;44.90;22.80;;;7.60;99.90;;;;;;5053642;28;20067;-58
2022/09/30 07:56:09;;;;;;;51.30;26.65;;;7.60;99.90;;;;;;5053968;28;20052;-65
2022/09/30 07:58:35;;;;;;;55.45;30.08;;;7.70;99.90;;;;;;5054166;28;20017;-68
2022/09/30 08:01:01;;;;;;;48.70;26.50;;;7.80;99.90;;;;;;5053951;28;20021;-58
2022/09/30 08:03:27;;;;;;;53.50;26.75;;;7.90;99.90;;;;;;5054027;28;20104;-74
2022/09/30 08:05:53;;;;;;;49.05;25.15;;;8.00;99.90;;;;;;5053615;28;20151;-64
2022/09/30 08:08:19;;;;;;;54.47;27.60;;;8.00;99.90;;;;;;5052580;28;20025;-62
2022/09/30 08:10:44;;;;;;;53.50;25.73;;;8.10;99.90;;;;;;5054112;28;20025;-67
2022/09/30 08:13:12;;;;;;;52.72;27.60;;;8.20;99.90;;;;;;5053558;28;20380;-63
2022/09/30 08:15:38;;;;;;;54.40;30.02;;;8.30;99.90;;;;;;5053971;28;20017;-69
2022/09/30 08:18:04;;;;;;;53.78;28.05;;;8.40;99.90;;;;;;5053592;28;20056;-70
2022/09/30 08:20:30;;;;;;;55.22;26.08;;;8.50;99.90;;;;;;5053326;28;20021;-67
2022/09/30 08:22:57;;;;;;;50.65;25.77;;;8.50;99.90;;;;;;5053898;28;20108;-67
2022/09/30 08:25:23;;;;;;;49.72;24.40;;;8.60;99.90;;;;;;5053734;28;20013;-59
2022/09/30 08:27:49;;;;;;;55.55;25.60;;;8.70;99.90;;;;;;5052691;28;20377;-65
2022/09/30 08:30:15;;;;;;;55.05;26.88;;;8.70;99.90;;;;;;5052228;28;20549;-55
2022/09/30 08:32:40;;;;;;;54.00;28.48;;;8.80;99.90;;;;;;5053146;28;20025;-58
2022/09/30 08:35:07;;;;;;;61.28;30.60;;;9.00;99.90;;;;;;5052745;28;20017;-51
2022/09/30 08:37:32;;;;;;;64.38;30.58;;;9.10;99.90;;;;;;5053185;28;20539;-54
2022/09/30 08:39:58;;;;;;;63.78;33.70;;;9.20;99.90;;;;;;5052955;28;20021;-62
2022/09/30 08:42:47;;;;;;;63.78;32.92;;;9.30;99.90;;;;;;5052403;28;20025;-59
2022/09/30 08:45:39;;;;;;;53.90;29.85;;;9.40;99.90;;;;;;5041601;28;20025;-57
2022/09/30 08:48:37;;;;;;;50.70;26.85;;;9.50;99.90;;;;;;5041859;28;20509;-62
2022/09/30 08:51:12;;;;;;;52.90;27.90;;;9.60;99.90;;;;;;5049682;28;21085;-55
2022/09/30 08:53:41;;;;;;;58.55;32.35;;;9.70;99.90;;;;;;5050020;28;20036;-68
2022/09/30 08:56:10;;;;;;;55.25;31.35;;;9.80;99.90;;;;;;5048574;28;20079;-62
2022/09/30 08:58:40;;;;;;;56.88;30.55;;;9.90;99.90;;;;;;5050936;28;20025;-58
2022/09/30 09:01:19;;;;;;;63.88;34.00;;;10.00;99.90;;;;;;5051093;28;20021;-57
2022/09/30 09:03:45;;;;;;;58.15;30.63;;;10.20;99.90;;;;;;5050665;28;20045;-66
2022/09/30 09:06:26;;;;;;;61.17;32.22;;;10.30;99.90;;;;;;5052040;28;20017;-57
2022/09/30 09:09:19;;;;;;;62.75;32.78;;;10.40;99.90;;;;;;5051517;28;20021;-59
2022/09/30 09:12:01;;;;;;;61.42;33.35;;;10.50;99.90;;;;;;5052939;28;20027;-63
2022/09/30 09:14:39;;;;;;;58.17;29.92;;;10.60;99.90;;;;;;5050860;28;20082;-55
2022/09/30 09:17:21;;;;;;;58.05;32.22;;;10.70;99.90;;;;;;5051305;28;20055;-59
2022/09/30 09:19:55;;;;;;;53.15;30.00;;;10.80;99.90;;;;;;5053450;28;20377;-56
2022/09/30 09:22:21;;;;;;;50.72;27.10;;;10.80;99.90;;;;;;5052529;28;20025;-55
2022/09/30 09:24:50;;;;;;;56.55;30.30;;;10.90;99.90;;;;;;5050673;28;20483;-60
2022/09/30 09:27:20;;;;;;;56.15;31.60;;;11.00;99.90;;;;;;5051528;28;20032;-52
2022/09/30 09:29:57;;;;;;;48.67;27.65;;;11.10;99.90;;;;;;5050207;28;20041;-55
2022/09/30 09:32:26;;;;;;;47.40;26.80;;;11.20;99.90;;;;;;5051269;28;20486;-56
2022/09/30 09:34:57;;;;;;;51.58;28.45;;;11.30;99.90;;;;;;5048926;28;20067;-58
2022/09/30 09:38:23;;;;;;;49.03;28.52;;;11.30;99.90;;;;;;5049726;28;20037;-53
2022/09/30 09:40:33;;;;;;;45.25;26.60;;;11.40;99.90;;;;;;5050643;28;20033;-61
2022/09/30 09:43:25;;;;;;;47.58;27.17;;;11.60;99.90;;;;;;5051399;28;20021;-56
2022/09/30 09:46:02;;;;;;;39.50;24.15;;;11.60;99.90;;;;;;5049920;28;20031;-56
2022/09/30 09:48:29;;;;;;;42.20;23.98;;;11.70;99.90;;;;;;5051330;28;20075;-56
2022/09/30 09:51:05;;;;;;;37.70;23.15;;;11.80;99.90;;;;;;5049870;28;20051;-56
2022/09/30 09:53:49;;;;;;;37.42;23.85;;;11.90;99.90;;;;;;5051135;28;20028;-56
2022/09/30 09:56:20;;;;;;;34.05;22.73;;;12.00;99.90;;;;;;5051556;28;20032;-61
2022/09/30 09:59:11;;;;;;;36.88;23.45;;;12.00;99.90;;;;;;5050275;28;20467;-55
2022/09/30 10:01:41;;;;;;;;;;;12.10;99.90;;;;;;5050429;28;20025;-62
2022/09/30 10:04:17;;;;;;;38.28;21.70;;;12.20;99.90;;;;;;5050991;28;19939;-64
2022/09/30 10:07:18;;;;;;;34.78;22.42;;;12.20;99.90;;;;;;5051330;28;20088;-61
2022/09/30 10:09:44;;;;;;;29.40;19.40;;;12.40;99.90;;;;;;5008973;28;20037;-57
2022/09/30 10:12:09;;;;;;;28.50;19.33;;;12.40;99.90;;;;;;5052123;28;20021;-61
2022/09/30 10:15:02;;;;;;;30.83;20.27;;;12.50;99.90;;;;;;5050182;28;20499;-58
2022/09/30 10:17:33;;;;;;;28.08;17.85;;;12.60;99.90;;;;;;5049994;28;20052;-63
2022/09/30 10:20:06;;;;;;;;;;;12.60;99.90;;;;;;5050939;28;20029;-61
2022/09/30 10:22:34;;;;;;;29.52;18.25;;;12.70;99.90;;;;;;5050240;28;20005;-55
2022/09/30 10:25:20;;;;;;;30.88;18.95;;;12.70;99.90;;;;;;5048293;28;20480;-61
2022/09/30 10:27:53;;;;;;;27.80;18.70;;;12.90;99.90;;;;;;5049802;28;20508;-58
2022/09/30 10:30:39;;;;;;;26.20;17.40;;;13.00;99.90;;;;;;5051057;28;20090;-59
2022/09/30 10:33:17;;;;;;;25.30;17.17;;;13.10;99.90;;;;;;5048581;28;20557;-68
2022/09/30 10:36:06;;;;;;;26.67;17.60;;;13.10;99.90;;;;;;5050201;28;20078;-67
2022/09/30 10:38:33;;;;;;;23.90;16.30;;;13.30;99.90;;;;;;5049685;28;20558;-61
2022/09/30 10:41:00;;;;;;;23.95;15.63;;;13.30;99.40;;;;;;5049614;28;20125;-64
2022/09/30 10:43:35;;;;;;;21.55;15.10;;;13.40;99.30;;;;;;5050710;28;20029;-65
2022/09/30 10:46:03;;;;;;;22.33;14.38;;;13.40;98.90;;;;;;5049720;28;20025;-62
2022/09/30 10:48:33;;;;;;;21.17;14.57;;;13.40;98.70;;;;;;5050136;28;20024;-64
2022/09/30 10:50:59;;;;;;;20.90;14.88;;;13.50;97.90;;;;;;5050777;28;20123;-58
2022/09/30 10:53:28;;;;;;;19.67;13.73;;;13.50;97.00;;;;;;5050178;28;20097;-65
2022/09/30 10:55:55;;;;;;;21.35;13.15;;;13.60;96.10;;;;;;5049386;28;20110;-58
2022/09/30 10:58:48;;;;;;;20.02;13.35;;;13.60;96.40;;;;;;5050291;28;20698;-62
2022/09/30 11:01:24;;;;;;;19.58;13.52;;;13.60;96.30;;;;;;5054259;28;20537;-56
2022/09/30 11:04:11;;;;;;;17.92;12.77;;;13.70;95.80;;;;;;5053715;28;20051;-56
2022/09/30 11:06:39;;;;;;;19.75;13.68;;;13.70;96.00;;;;;;5043959;28;20071;-60
2022/09/30 11:09:18;;;;;;;19.98;14.45;;;13.70;96.20;;;;;;5031457;28;20033;-68
2022/09/30 11:11:58;;;;;;;19.83;14.23;;;13.80;95.90;;;;;;5033988;28;20497;-60
2022/09/30 11:14:38;;;;;;;21.05;15.05;;;13.90;95.90;;;;;;5039404;28;20346;-59
2022/09/30 11:17:12;;;;;;;21.17;13.98;;;13.90;95.80;;;;;;5052271;28;20390;-56
2022/09/30 11:19:52;;;;;;;18.70;13.48;;;14.00;95.90;;;;;;5045881;28;20044;-57
2022/09/30 11:22:50;;;;;;;17.95;12.70;;;14.00;95.70;;;;;;5051595;28;20063;-57
2022/09/30 11:25:34;;;;;;;18.92;13.27;;;14.10;95.30;;;;;;5033839;28;20083;-59
2022/09/30 11:28:30;;;;;;;20.95;14.00;;;14.20;94.60;;;;;;5050055;28;20461;-58
2022/09/30 11:31:22;;;;;;;19.02;14.00;;;14.20;94.30;;;;;;5052563;28;20036;-58
2022/09/30 11:34:07;;;;;;;18.85;15.07;;;14.30;94.30;;;;;;5052690;28;20326;-56
2022/09/30 11:36:58;;;;;;;21.13;14.77;;;14.40;93.90;;;;;;5053508;28;20302;-64
2022/09/30 11:39:35;;;;;;;20.95;14.90;;;14.40;94.10;;;;;;5053730;28;20013;-57
2022/09/30 11:42:36;;;;;;;21.25;15.63;;;14.40;93.70;;;;;;5033450;28;20017;-55
2022/09/30 11:45:17;;;;;;;18.67;13.60;;;14.40;93.50;;;;;;5032568;28;20022;-58
2022/09/30 11:47:53;;;;;;;18.58;13.27;;;14.40;93.40;;;;;;5033269;28;20613;-56
2022/09/30 11:50:43;;;;;;;16.98;12.65;;;14.40;93.10;;;;;;5033316;28;20077;-55
2022/09/30 11:53:21;;;;;;;17.92;12.88;;;14.50;92.90;;;;;;5033583;28;20045;-60
2022/09/30 11:56:05;;;;;;;16.13;10.98;;;14.60;92.70;;;;;;5032942;28;20114;-59
2022/09/30 11:58:44;;;;;;;14.63;10.48;;;14.60;92.60;;;;;;5033434;28;20417;-58
2022/09/30 12:01:33;;;;;;;14.57;10.35;;;14.70;92.50;;;;;;5043089;28;20018;-59
2022/09/30 12:04:01;;;;;;;13.32;9.75;;;14.80;92.10;;;;;;5034172;28;20082;-62
2022/09/30 12:06:53;;;;;;;11.52;8.65;;;14.90;91.40;;;;;;5034023;28;20079;-57
2022/09/30 12:09:31;;;;;;;12.80;7.78;;;15.00;91.50;;;;;;5034298;28;20029;-60
2022/09/30 12:12:02;;;;;;;12.07;8.15;;;15.10;91.00;;;;;;5033252;28;20061;-55
2022/09/30 12:14:37;;;;;;;13.68;8.85;;;15.10;90.90;;;;;;5032888;28;20091;-59
2022/09/30 12:17:10;;;;;;;12.13;8.30;;;15.10;90.90;;;;;;5032401;28;20384;-55
2022/09/30 12:19:44;;;;;;;9.02;7.00;;;15.20;90.10;;;;;;5032296;28;20017;-64
2022/09/30 12:22:21;;;;;;;13.82;7.50;;;15.20;88.90;;;;;;5032065;28;20613;-57
2022/09/30 12:24:46;;;;;;;10.32;7.03;;;15.30;88.00;;;;;;5031616;28;20029;-63
2022/09/30 12:27:38;;;;;;;12.75;7.55;;;15.30;87.60;;;;;;5032993;28;20371;-63
2022/09/30 12:30:16;;;;;;;;;;;15.30;87.90;;;;;;5033264;28;20025;-55
2022/09/30 12:33:09;;;;;;;10.85;6.88;;;15.30;87.90;;;;;;5032823;28;20357;-58
2022/09/30 12:36:02;;;;;;;10.30;6.72;;;15.50;87.90;;;;;;5032468;28;20166;-61
2022/09/30 12:38:40;;;;;;;8.73;6.07;;;15.60;86.90;;;;;;5032162;28;20076;-63
2022/09/30 12:41:36;;;;;;;10.52;6.60;;;15.70;85.80;;;;;;5044950;28;20037;-63
2022/09/30 12:44:39;;;;;;;10.30;7.25;;;15.80;85.70;;;;;;5052053;28;20013;-58
2022/09/30 12:47:46;;;;;;;9.35;6.43;;;15.90;84.40;;;;;;5050602;28;20494;-59
2022/09/30 12:50:19;;;;;;;12.25;7.95;;;16.00;82.70;;;;;;5050818;28;20444;-60
2022/09/30 12:52:45;;;;;;;12.93;7.88;;;16.00;82.50;;;;;;5051089;28;20359;-59
2022/09/30 12:55:30;;;;;;;10.60;7.35;;;16.10;83.20;;;;;;5051691;28;20020;-57
2022/09/30 12:58:00;;;;;;;13.80;8.35;;;16.00;83.40;;;;;;5051804;28;20135;-63
2022/09/30 13:00:33;;;;;;;11.73;7.20;;;15.90;83.10;;;;;;5051296;28;20033;-57
2022/09/30 13:03:16;;;;;;;10.88;6.35;;;15.90;83.90;;;;;;5051874;28;20029;-56
2022/09/30 13:05:42;;;;;;;12.00;8.05;;;15.90;84.90;;;;;;5051080;28;20557;-56
2022/09/30 13:08:22;;;;;;;12.85;6.93;;;15.90;84.30;;;;;;5051040;28;20032;-56
2022/09/30 13:10:58;;;;;;;10.90;6.65;;;15.90;84.10;;;;;;5051751;28;20025;-51
2022/09/30 13:13:35;;;;;;;11.88;7.15;;;16.00;83.50;;;;;;5050314;28;20021;-64
2022/09/30 13:16:03;;;;;;;9.18;6.20;;;15.90;83.70;;;;;;5048890;28;20029;-62
2022/09/30 13:18:29;;;;;;;10.65;7.28;;;16.00;84.10;;;;;;5051575;28;20063;-59
2022/09/30 13:21:15;;;;;;;9.43;5.95;;;16.00;83.10;;;;;;5051607;28;20021;-66